Grand River, Iowa
Current Conditions -  °F | °C
As of 3:53 PM on Sunday 21 Dec 2014 (Local Time) from KLWD Reporting Station
Overcast Overcast  
Wind Chill: 36°   Ceiling: 1400
Heat Index: 41°   Visibility: 10mi
Dew Point: 39°   Wind: 8mph
Humidity: 93%   Direction: 170°S
Pressure: 29.83"   Gusts: NA
Location:  40.82°N, 93.96°W
Report Text: KLWD 212153Z AUTO 17007KT 10SM BKN014 OVC020 05/04 A2983 RMK AO2 SLP109 T00500039
Loading
Personal Weather Stations






























Interactive Weather Map New forecast layout! Learn more

10-Day Weather Forecast

Advertisements
Track Severe Weather on mobile